Charles City, IA (50616)

4:00 PM CST on December 09, 2016 (GMT -0600)
Downtown Charles City | | Change Station
Active Advisory: Winter Weather Advisory

Elev 991 ft 43.07 °N, 92.67 °W | Updated 33 seconds ago

Mostly Cloudy
Mostly Cloudy
19.0 °F
Feels Like 19 °F
N
2.2
Wind Variable Wind from West

Today
High -- | Low -- °F
--% Chance of Precip.
Yesterday
High -- | Low -- °F
Precip. -- in
Pressure 30.51 in
Visibility -9999.0 miles
Clouds Few 1300 ft
Scattered Clouds 2000 ft
Mostly Cloudy 11000 ft
Windchill 19 °F
Dew Point 14 °F
Humidity 79%
Rainfall in
Snow Depth Not available.
7:30 AM 4:35 PM
Waxing Gibbous, 77% visible
METAR KCCY 092155Z AUTO 29003KT FEW013 SCT020 BKN110 M08/M11 A3051 RMK AO2
Pressure 30.51 in
Visibility -9999.0 miles
Clouds Few 1300 ft
Scattered Clouds 2000 ft
Mostly Cloudy 11000 ft
Windchill 19 °F
Dew Point 14 °F
Humidity 79%
Rainfall in
Snow Depth Not available.
7:30 AM 4:35 PM
Waxing Gibbous, 77% visible
METAR KCCY 092155Z AUTO 29003KT FEW013 SCT020 BKN110 M08/M11 A3051 RMK AO2

10-Day Weather Forecast

Almanac

Astronomy

Dec. 09, 2016 Rise Set
Actual Time
Civil Twilight
Nautical Twilight
Astronomical Twilight
Moon
Length of Visible Light
Length of Day
Tomorrow will be .
, % of the Moon is Illuminated

Today's Extremes

State Highs State Lows

Community

WunderPhotos

Upload Photos

1,956,535 photos uploaded!

WunderBlog® & News

Nearby

Air Quality

  Air Quality AQ Index Pollutant
Not available.

Snow Depth

Station Depth Elevation

Earthquake Activity

City Distance Mag. Time & Date
Minimum magnitude displayed is 2.5.

Coastal Water Temperatures

Place Temperature

Stations

Nearby Weather Stations

Station Location Temp. Windchill Dew Point Humidity Wind Precip. Elev Updated Type
                   

Watches & Warnings

Winter Weather Advisory
Issued: 2:53 PM CST Dec. 9, 2016 – National Weather Service

... Winter Weather Advisory remains in effect from 2 PM Saturday
to 6 PM CST Sunday...

* expect snow to develop around 2 PM Saturday and then diminish
around 6 PM Sunday.

* The heaviest snowfall rates will occur between 6 PM Saturday
and midnight Sunday.

* Total snow accumulations of 5 to 8 inches are expected.

* Look for reduced visibilities at times.

* Plan on difficult driving conditions.

Precautionary/preparedness actions...

A Winter Weather Advisory means that periods of snow... sleet or
freezing rain will cause travel difficulties. Be prepared for
slippery roads and limited visibilities... and use caution while
driving. The latest Road conditions for the state you are calling
from can be obtained by calling 5 1 1.